Time;durP1;ratioP1;P1;durP2;ratioP2;P2;SDS_P1;SDS_P2;PMS_P1;PMS_P2;Temp;Humidity;BMP_temperature;BMP_pressure;BME280_temperature;BME280_humidity;BME280_pressure;Samples;Min_cycle;Max_cycle;Signal;HPM_P1;HPM_P2
2022/06/01 00:02:11;;;;;;;16.25;13.10;;;10.00;99.90;;;;;;5083919;28;20129;-42
2022/06/01 00:04:37;;;;;;;17.90;12.88;;;9.20;99.90;;;;;;5085320;28;20051;-43
2022/06/01 00:07:04;;;;;;;14.82;12.77;;;9.40;99.90;;;;;;5052461;28;20076;-42
2022/06/01 00:09:30;;;;;;;13.93;11.82;;;9.40;99.90;;;;;;5035116;28;20060;-42
2022/06/01 00:11:56;;;;;;;14.13;12.63;;;11.20;99.90;;;;;;5084699;28;20097;-42
2022/06/01 00:14:23;;;;;;;16.75;13.80;;;9.30;99.90;;;;;;5051949;28;20051;-44
2022/06/01 00:16:55;;;;;;;15.00;13.50;;;9.30;99.90;;;;;;5051931;28;20041;-42
2022/06/01 00:19:22;;;;;;;18.02;14.00;;;9.10;99.90;;;;;;5051464;28;20098;-43
2022/06/01 00:24:37;;;;;;;18.95;14.88;;;11.40;99.90;;;;;;5051582;28;20063;-44
2022/06/01 00:27:08;;;;;;;17.58;15.15;;;9.30;99.90;;;;;;5050666;28;20132;-42
2022/06/01 00:29:35;;;;;;;20.00;14.02;;;9.40;99.90;;;;;;5084098;28;20051;-44
2022/06/01 00:32:02;;;;;;;14.98;13.43;;;9.30;99.90;;;;;;5050742;28;20113;-43
2022/06/01 00:34:27;;;;;;;15.60;13.68;;;10.90;99.90;;;;;;5085033;28;20152;-43
2022/06/01 00:36:53;;;;;;;17.13;14.50;;;9.40;99.90;;;;;;5050262;28;20478;-43
2022/06/01 00:39:23;;;;;;;16.00;13.65;;;9.30;99.90;;;;;;5052220;28;20346;-42
2022/06/01 00:41:49;;;;;;;15.60;13.98;;;9.40;99.90;;;;;;5051344;28;20715;-43
2022/06/01 00:44:15;;;;;;;15.40;13.40;;;9.30;99.90;;;;;;5050743;28;20052;-44
2022/06/01 00:46:44;;;;;;;18.45;15.05;;;10.50;99.90;;;;;;5051033;28;20061;-46
2022/06/01 00:49:17;;;;;;;18.83;14.85;;;10.70;99.90;;;;;;5053367;28;20063;-44
2022/06/01 00:51:45;;;;;;;16.92;15.13;;;9.20;99.90;;;;;;5051426;28;20048;-43
2022/06/01 00:54:12;;;;;;;16.60;14.18;;;9.40;99.90;;;;;;5036039;28;20048;-45
2022/06/01 00:56:45;;;;;;;16.48;14.82;;;9.30;99.90;;;;;;5051333;28;20047;-44
2022/06/01 00:59:16;;;;;;;18.23;14.23;;;9.40;99.90;;;;;;5085713;28;20052;-42
2022/06/01 01:01:43;;;;;;;15.88;14.18;;;9.20;99.90;;;;;;5085181;28;20173;-45
2022/06/01 01:04:10;;;;;;;16.98;15.18;;;9.30;99.90;;;;;;5084921;28;20117;-42
2022/06/01 01:06:41;;;;;;;16.73;14.38;;;9.30;99.90;;;;;;5050614;28;20056;-42
2022/06/01 01:09:08;;;;;;;17.05;15.25;;;9.20;99.90;;;;;;5050391;28;20370;-42
2022/06/01 01:11:55;;;;;;;17.20;15.45;;;9.20;99.90;;;;;;5033723;28;20060;-42
2022/06/01 01:14:25;;;;;;;17.10;15.27;;;9.50;99.90;;;;;;5053188;28;20099;-43
2022/06/01 01:16:54;;;;;;;16.95;14.35;;;9.30;99.90;;;;;;5054993;28;20040;-44
2022/06/01 01:19:26;;;;;;;19.55;15.55;;;10.40;99.90;;;;;;5089688;28;20149;-45
2022/06/01 01:22:11;;;;;;;16.92;15.13;;;11.00;99.90;;;;;;5055231;28;20042;-47
2022/06/01 01:24:43;;;;;;;18.92;14.40;;;9.20;99.90;;;;;;5056606;28;20032;-45
2022/06/01 01:27:09;;;;;;;18.42;16.42;;;9.70;99.90;;;;;;5039901;28;20509;-45
2022/06/01 01:29:42;;;;;;;18.02;16.05;;;10.20;99.90;;;;;;5038886;28;20156;-43
2022/06/01 01:32:11;;;;;;;16.85;15.10;;;9.10;99.90;;;;;;5055506;28;20460;-46
2022/06/01 01:34:38;;;;;;;19.85;16.58;;;9.20;99.90;;;;;;5039711;28;20060;-42
2022/06/01 01:37:25;;;;;;;17.33;15.40;;;9.30;99.90;;;;;;5054870;28;20113;-41
2022/06/01 01:39:54;;;;;;;20.50;16.52;;;9.20;99.90;;;;;;5087406;28;20144;-42
2022/06/01 01:42:20;;;;;;;22.88;17.27;;;10.90;99.90;;;;;;5054291;28;20040;-43
2022/06/01 01:44:58;;;;;;;22.85;17.75;;;10.70;99.90;;;;;;5053722;28;20044;-45
2022/06/01 01:47:24;;;;;;;17.27;15.00;;;9.30;99.90;;;;;;5053662;28;20081;-43
2022/06/01 01:49:50;;;;;;;20.50;17.95;;;9.20;99.90;;;;;;5054110;28;20152;-42
2022/06/01 01:52:18;;;;;;;18.20;16.20;;;9.40;99.90;;;;;;5087412;28;20370;-44
2022/06/01 01:55:08;;;;;;;15.77;14.07;;;11.40;99.90;;;;;;5055191;28;20051;-45
2022/06/01 01:58:01;;;;;;;19.83;16.08;;;9.40;99.90;;;;;;5087917;28;20127;-42
2022/06/01 02:00:35;;;;;;;18.33;15.45;;;9.30;99.90;;;;;;5054548;28;20065;-43
2022/06/01 02:03:29;;;;;;;16.45;14.85;;;9.40;99.90;;;;;;5070800;28;20052;-43
2022/06/01 02:06:26;;;;;;;19.00;17.10;;;9.60;99.90;;;;;;5087951;28;20138;-43
2022/06/01 02:09:08;;;;;;;17.60;15.85;;;9.50;99.90;;;;;;5054723;28;20056;-43
2022/06/01 02:14:42;;;;;;;19.20;14.38;;;10.30;99.90;;;;;;5085812;28;20638;-42
2022/06/01 02:17:10;;;;;;;15.80;14.18;;;10.70;99.90;;;;;;5053311;28;20051;-41
2022/06/01 02:19:44;;;;;;;16.98;15.25;;;9.80;99.90;;;;;;5086785;28;20485;-44
2022/06/01 02:22:10;;;;;;;16.90;15.10;;;9.10;99.90;;;;;;5053871;28;20494;-41
2022/06/01 02:24:38;;;;;;;17.40;15.70;;;10.90;99.90;;;;;;5054278;28;20043;-42
2022/06/01 02:27:04;;;;;;;19.75;15.65;;;9.00;99.90;;;;;;5053630;28;20048;-43
2022/06/01 02:29:37;;;;;;;19.38;14.25;;;9.10;99.90;;;;;;5088625;28;20060;-42
2022/06/01 02:32:09;;;;;;;19.00;16.70;;;9.10;99.90;;;;;;5087638;28;20056;-42
2022/06/01 02:34:37;;;;;;;21.58;17.40;;;9.10;99.90;;;;;;5037322;28;20123;-43
2022/06/01 02:37:06;;;;;;;20.17;17.52;;;9.50;99.90;;;;;;5070386;28;20044;-42
2022/06/01 02:39:36;;;;;;;20.58;17.13;;;10.00;99.90;;;;;;5054348;28;20067;-42
2022/06/01 02:42:26;;;;;;;20.67;17.75;;;11.00;99.90;;;;;;5070597;28;20127;-41
2022/06/01 02:44:56;;;;;;;19.45;15.90;;;9.90;99.90;;;;;;5053220;28;20047;-41
2022/06/01 02:47:23;;;;;;;19.85;17.08;;;9.00;99.90;;;;;;5053750;28;20044;-43
2022/06/01 02:49:50;;;;;;;20.25;18.15;;;10.30;99.90;;;;;;5086349;28;20064;-41
2022/06/01 02:52:16;;;;;;;24.02;21.38;;;10.70;99.90;;;;;;5087521;28;21370;-41
2022/06/01 02:54:44;;;;;;;24.27;19.75;;;8.90;99.90;;;;;;5054840;28;20051;-41
2022/06/01 02:57:09;;;;;;;26.17;20.08;;;10.90;99.90;;;;;;5087699;28;20060;-41
2022/06/01 02:59:36;;;;;;;23.52;19.67;;;9.00;99.90;;;;;;5054907;28;20134;-42
2022/06/01 03:02:02;;;;;;;26.38;21.90;;;10.00;99.90;;;;;;5053885;28;20045;-42
2022/06/01 03:04:27;;;;;;;22.80;20.48;;;9.00;99.90;;;;;;5053844;28;20044;-42
2022/06/01 03:06:54;;;;;;;21.08;18.50;;;8.80;99.90;;;;;;5051826;28;20075;-41
2022/06/01 03:09:21;;;;;;;24.17;20.27;;;11.10;99.90;;;;;;5054213;28;20583;-44
2022/06/01 03:11:48;;;;;;;24.55;20.00;;;9.40;99.90;;;;;;5085896;28;20028;-41
2022/06/01 03:14:13;;;;;;;23.00;20.30;;;9.10;99.90;;;;;;5053119;28;20033;-43
2022/06/01 03:16:39;;;;;;;22.42;20.15;;;9.00;99.90;;;;;;5052758;28;20799;-42
2022/06/01 03:19:06;;;;;;;22.00;18.70;;;9.10;99.90;;;;;;5035226;28;20082;-43
2022/06/01 03:21:32;;;;;;;20.35;18.23;;;9.20;99.90;;;;;;5052469;28;20102;-43
2022/06/01 03:24:01;;;;;;;24.30;21.08;;;9.20;99.90;;;;;;5054529;28;20041;-44
2022/06/01 03:26:27;;;;;;;21.95;19.70;;;9.10;99.90;;;;;;5052434;28;20067;-42
2022/06/01 03:28:52;;;;;;;24.00;21.48;;;10.80;99.90;;;;;;5052696;28;20505;-42
2022/06/01 03:31:18;;;;;;;28.55;23.70;;;8.90;99.90;;;;;;5052106;28;20036;-44
2022/06/01 03:33:44;;;;;;;27.00;23.30;;;11.10;99.90;;;;;;5054644;28;20070;-48
2022/06/01 03:36:10;;;;;;;28.63;24.08;;;9.30;99.90;;;;;;5085507;28;20432;-45
2022/06/01 03:38:36;;;;;;;28.52;22.95;;;9.00;99.90;;;;;;5051151;28;20084;-44
2022/06/01 03:41:05;;;;;;;28.67;24.15;;;10.30;99.90;;;;;;5086878;28;20151;-46
2022/06/01 03:45:55;;;;;;;27.75;24.75;;;10.30;99.90;;;;;;5051667;28;20208;-45
2022/06/01 03:46:17;;;;;;;26.23;23.13;;;9.10;99.90;;;;;;5052804;28;20080;-45
2022/06/01 03:48:43;;;;;;;29.60;24.02;;;9.20;99.90;;;;;;5051472;28;20135;-46
2022/06/01 03:51:09;;;;;;;26.20;22.75;;;9.10;99.90;;;;;;5085368;28;20338;-43
2022/06/01 03:53:35;;;;;;;25.50;22.85;;;9.20;99.90;;;;;;5052596;28;20561;-44
2022/06/01 03:56:02;;;;;;;30.67;23.88;;;9.10;99.90;;;;;;5086678;28;20052;-44
2022/06/01 03:58:29;;;;;;;26.55;23.75;;;9.30;99.90;;;;;;5053031;28;20052;-43
2022/06/01 04:00:56;;;;;;;28.83;22.88;;;11.10;99.90;;;;;;5053046;28;20032;-42
2022/06/01 04:03:22;;;;;;;26.73;23.58;;;11.20;99.90;;;;;;5031511;28;20671;-45
2022/06/01 04:05:48;;;;;;;27.17;23.92;;;9.10;99.90;;;;;;5052545;28;20051;-42
2022/06/01 04:08:15;;;;;;;23.10;20.90;;;9.40;99.90;;;;;;5052896;28;20036;-43
2022/06/01 04:10:43;;;;;;;28.77;23.55;;;9.30;99.90;;;;;;5069002;28;20502;-44
2022/06/01 04:13:10;;;;;;;28.20;23.02;;;11.00;99.90;;;;;;5052565;28;20044;-44
2022/06/01 04:15:36;;;;;;;24.38;21.83;;;10.50;99.90;;;;;;5053588;28;20107;-43
2022/06/01 04:18:01;;;;;;;26.98;24.17;;;9.90;99.90;;;;;;5053269;28;20548;-43
2022/06/01 04:20:27;;;;;;;28.67;25.58;;;9.50;99.90;;;;;;5086634;28;20169;-44
2022/06/01 04:22:57;;;;;;;29.23;26.05;;;9.30;99.90;;;;;;5085320;28;20848;-43
2022/06/01 04:25:23;;;;;;;27.17;24.30;;;10.60;99.90;;;;;;5051430;28;20097;-44
2022/06/01 04:27:49;;;;;;;26.40;23.35;;;9.50;99.90;;;;;;5052098;28;20040;-45
2022/06/01 04:30:17;;;;;;;24.67;22.08;;;10.30;99.90;;;;;;5084844;28;20055;-44
2022/06/01 04:32:45;;;;;;;26.48;22.67;;;9.50;99.90;;;;;;5084522;28;20552;-44
2022/06/01 04:35:13;;;;;;;27.35;24.45;;;11.40;99.90;;;;;;5083919;28;20041;-43
2022/06/01 04:37:38;;;;;;;28.05;25.20;;;9.60;99.90;;;;;;5067117;28;20044;-42
2022/06/01 04:40:05;;;;;;;28.67;24.42;;;9.30;99.90;;;;;;5052912;28;20044;-42
2022/06/01 04:42:31;;;;;;;26.25;23.45;;;9.60;99.90;;;;;;5050938;28;20086;-43
2022/06/01 04:44:57;;;;;;;27.90;24.88;;;10.20;99.90;;;;;;5083592;28;20477;-42
2022/06/01 04:47:22;;;;;;;30.13;25.33;;;9.40;99.90;;;;;;5050520;28;20123;-43
2022/06/01 04:49:48;;;;;;;28.40;25.40;;;9.60;99.90;;;;;;5049499;28;20044;-42
2022/06/01 04:52:14;;;;;;;28.70;25.83;;;9.70;99.90;;;;;;5050681;28;20054;-43
2022/06/01 04:54:40;;;;;;;25.90;22.95;;;11.60;99.90;;;;;;5051893;28;20045;-44
2022/06/01 04:57:08;;;;;;;25.38;22.73;;;9.80;99.90;;;;;;5051633;28;20157;-42
2022/06/01 04:59:34;;;;;;;26.40;21.75;;;9.80;99.90;;;;;;5051073;28;20060;-42
2022/06/01 05:02:00;;;;;;;25.63;22.92;;;11.60;99.90;;;;;;5045605;28;20076;-42
2022/06/01 05:04:28;;;;;;;25.25;22.65;;;11.00;99.90;;;;;;5050413;28;20044;-42
2022/06/01 05:06:58;;;;;;;24.17;21.48;;;9.80;99.90;;;;;;5050432;28;20044;-43
2022/06/01 05:09:24;;;;;;;28.10;25.05;;;10.00;99.90;;;;;;5051909;28;20040;-42
2022/06/01 05:11:51;;;;;;;27.90;24.85;;;11.50;99.90;;;;;;5049844;28;20405;-43
2022/06/01 05:14:17;;;;;;;27.77;24.30;;;10.00;99.90;;;;;;5030148;28;20095;-43
2022/06/01 05:16:43;;;;;;;27.90;25.08;;;11.10;99.90;;;;;;5066261;28;20468;-42
2022/06/01 05:19:09;;;;;;;28.00;23.83;;;10.50;99.90;;;;;;5051122;28;20056;-43
2022/06/01 05:21:35;;;;;;;25.88;23.13;;;12.90;99.90;;;;;;5084812;28;20056;-43
2022/06/01 05:24:00;;;;;;;25.08;22.35;;;12.90;99.90;;;;;;5084395;28;20033;-44
2022/06/01 05:26:26;;;;;;;22.67;20.38;;;12.40;99.90;;;;;;5036554;28;20037;-43
2022/06/01 05:28:52;;;;;;;23.77;19.88;;;12.00;99.90;;;;;;5084719;28;20497;-44
2022/06/01 05:31:19;;;;;;;21.13;18.92;;;12.00;99.90;;;;;;5051145;28;20048;-43
2022/06/01 05:33:45;;;;;;;19.92;17.90;;;12.60;99.90;;;;;;5050616;28;20132;-44
2022/06/01 05:36:13;;;;;;;19.05;17.15;;;14.10;99.90;;;;;;5050719;28;20051;-44
2022/06/01 05:38:40;;;;;;;20.00;18.10;;;13.50;99.90;;;;;;5084670;28;20048;-44
2022/06/01 05:41:09;;;;;;;20.67;17.70;;;13.30;99.90;;;;;;5050757;28;20625;-42
2022/06/01 05:43:35;;;;;;;19.48;17.38;;;13.70;99.90;;;;;;5033852;28;20040;-43
2022/06/01 05:46:02;;;;;;;20.35;18.25;;;14.00;99.90;;;;;;5050048;28;20061;-42
2022/06/01 05:48:28;;;;;;;18.20;16.45;;;13.10;99.90;;;;;;5084309;28;20056;-44
2022/06/01 05:50:55;;;;;;;16.50;14.57;;;12.20;99.90;;;;;;5050637;28;20051;-42
2022/06/01 05:53:21;;;;;;;17.77;14.35;;;13.80;99.90;;;;;;5050490;28;20064;-43
2022/06/01 05:55:49;;;;;;;17.52;14.55;;;13.90;99.90;;;;;;5084133;28;20041;-42
2022/06/01 05:58:18;;;;;;;18.13;14.70;;;13.00;99.90;;;;;;5033049;28;20087;-44
2022/06/01 06:00:47;;;;;;;16.38;14.65;;;12.60;99.90;;;;;;5086140;28;20066;-44
2022/06/01 06:03:14;;;;;;;16.40;14.52;;;12.10;99.90;;;;;;5055419;28;20743;-43
2022/06/01 06:08:24;;;;;;;16.23;14.63;;;11.20;99.90;;;;;;5053464;28;20134;-44
2022/06/01 06:10:50;;;;;;;16.73;15.02;;;11.20;99.90;;;;;;5054687;28;20048;-43
2022/06/01 06:13:16;;;;;;;17.45;15.65;;;12.50;99.90;;;;;;5052858;28;20510;-43
2022/06/01 06:15:42;;;;;;;18.92;16.88;;;11.90;99.90;;;;;;5086706;28;20039;-43
2022/06/01 06:18:11;;;;;;;17.50;15.68;;;11.90;99.90;;;;;;5087639;28;20044;-47
2022/06/01 06:20:38;;;;;;;15.82;14.23;;;11.00;99.90;;;;;;5087616;28;20033;-43
2022/06/01 06:23:06;;;;;;;16.05;14.45;;;11.10;99.90;;;;;;5052045;28;20052;-43
2022/06/01 06:25:32;;;;;;;15.25;13.75;;;10.80;99.90;;;;;;5085982;28;20479;-46
2022/06/01 06:27:58;;;;;;;14.75;12.98;;;13.00;99.90;;;;;;5052943;28;20079;-44
2022/06/01 06:30:23;;;;;;;15.32;13.73;;;10.90;99.90;;;;;;5054672;28;20654;-44
2022/06/01 06:32:49;;;;;;;13.98;12.55;;;11.90;99.90;;;;;;5055102;28;20209;-45
2022/06/01 06:35:15;;;;;;;13.25;11.38;;;11.00;99.90;;;;;;5053912;28;20809;-47
2022/06/01 06:37:41;;;;;;;13.88;12.35;;;10.70;99.90;;;;;;5088728;28;20546;-43
2022/06/01 06:40:08;;;;;;;12.40;11.10;;;10.80;99.90;;;;;;5054903;28;20071;-47
2022/06/01 06:42:34;;;;;;;15.40;11.45;;;10.90;99.90;;;;;;5038140;28;20060;-43
2022/06/01 06:45:03;;;;;;;12.45;10.60;;;10.90;99.90;;;;;;5053453;28;20107;-42
2022/06/01 06:47:33;;;;;;;12.13;9.57;;;11.00;99.90;;;;;;5036859;28;20045;-46
2022/06/01 06:50:06;;;;;;;13.90;10.98;;;11.00;99.90;;;;;;5086436;28;20070;-46
2022/06/01 06:52:32;;;;;;;15.40;10.18;;;10.90;99.90;;;;;;5053842;28;20068;-46
2022/06/01 06:54:57;;;;;;;12.68;10.80;;;11.00;99.90;;;;;;5053909;28;20137;-44
2022/06/01 06:57:23;;;;;;;12.85;10.68;;;11.00;99.90;;;;;;5053469;28;20079;-47
2022/06/01 06:59:49;;;;;;;14.68;11.23;;;11.10;99.90;;;;;;5052456;28;20067;-45
2022/06/01 07:02:16;;;;;;;13.52;11.88;;;13.00;99.90;;;;;;5053645;28;20635;-45
2022/06/01 07:04:42;;;;;;;14.52;11.77;;;11.60;99.90;;;;;;5032787;28;20158;-45
2022/06/01 07:07:08;;;;;;;15.85;11.60;;;11.70;99.90;;;;;;5052867;28;21195;-44
2022/06/01 07:09:34;;;;;;;14.85;11.65;;;13.50;99.90;;;;;;5053905;28;20041;-43
2022/06/01 07:12:04;;;;;;;12.88;11.02;;;12.20;99.90;;;;;;5033338;28;20195;-48
2022/06/01 07:14:30;;;;;;;12.85;11.00;;;12.60;99.90;;;;;;5051920;28;20336;-47
2022/06/01 07:16:59;;;;;;;15.00;11.32;;;13.90;99.90;;;;;;5052732;28;20052;-44
2022/06/01 07:19:26;;;;;;;10.32;9.27;;;13.70;99.90;;;;;;5086450;28;20611;-46
2022/06/01 07:21:51;;;;;;;11.07;9.93;;;14.40;99.90;;;;;;5036405;28;20086;-44
2022/06/01 07:24:17;;;;;;;10.95;9.40;;;15.40;99.90;;;;;;5052086;28;20139;-43
2022/06/01 07:26:44;;;;;;;12.32;10.20;;;14.70;99.90;;;;;;5053841;28;20447;-45
2022/06/01 07:29:12;;;;;;;12.15;10.40;;;14.50;99.90;;;;;;5051919;28;20056;-43
2022/06/01 07:31:38;;;;;;;11.82;10.27;;;14.60;99.90;;;;;;5086736;28;20517;-43
2022/06/01 07:34:05;;;;;;;13.32;10.73;;;14.30;99.90;;;;;;5052469;28;20082;-46
2022/06/01 07:36:33;;;;;;;13.07;10.20;;;16.30;99.90;;;;;;5085896;28;20067;-43
2022/06/01 07:44:38;;;;;;;11.63;10.48;;;14.10;99.90;;;;;;5051557;28;20537;-43
2022/06/01 07:47:05;;;;;;;11.38;10.27;;;15.70;99.90;;;;;;5051291;28;20053;-43
2022/06/01 07:49:31;;;;;;;12.75;10.77;;;14.00;99.90;;;;;;5052821;28;20072;-46
2022/06/01 07:51:56;;;;;;;11.57;10.40;;;14.00;99.90;;;;;;5051466;28;20081;-45
2022/06/01 07:54:22;;;;;;;10.55;9.45;;;14.00;99.90;;;;;;5052010;28;20045;-43
2022/06/01 07:56:48;;;;;;;10.88;9.57;;;16.10;99.90;;;;;;5053876;28;20053;-45
2022/06/01 07:59:14;;;;;;;10.60;9.50;;;13.40;99.90;;;;;;5029119;28;20037;-46
2022/06/01 08:01:42;;;;;;;12.85;9.13;;;16.70;99.90;;;;;;5051507;28;20432;-47
2022/06/01 08:04:09;;;;;;;11.48;9.50;;;14.90;99.90;;;;;;5049159;28;20044;-45
2022/06/01 08:06:37;;;;;;;10.20;8.45;;;16.30;99.90;;;;;;5051861;28;20420;-43
2022/06/01 08:09:05;;;;;;;9.93;8.32;;;16.40;99.90;;;;;;5052717;28;20067;-48
2022/06/01 08:14:16;;;;;;;10.20;7.95;;;15.80;99.90;;;;;;5050469;28;20185;-42
2022/06/01 08:16:44;;;;;;;9.63;7.35;;;15.60;99.90;;;;;;5051611;28;20936;-42
2022/06/01 08:19:11;;;;;;;8.52;6.93;;;15.40;99.90;;;;;;5050461;28;20447;-43
2022/06/01 08:21:37;;;;;;;7.93;7.13;;;16.20;99.90;;;;;;5050383;28;20556;-43
2022/06/01 08:24:04;;;;;;;8.30;7.30;;;15.40;99.90;;;;;;5049162;28;20089;-44
2022/06/01 08:26:30;;;;;;;6.63;5.78;;;15.20;99.90;;;;;;5052323;28;20036;-43
2022/06/01 08:28:58;;;;;;;9.27;7.05;;;17.20;99.90;;;;;;5049282;28;20083;-42
2022/06/01 08:31:29;;;;;;;7.00;6.30;;;18.70;99.90;;;;;;5050956;28;20051;-44
2022/06/01 08:33:56;;;;;;;7.40;5.20;;;18.30;99.90;;;;;;5052415;28;20037;-43
2022/06/01 08:36:22;;;;;;;8.50;5.47;;;20.10;99.90;;;;;;5051193;28;21014;-44
2022/06/01 08:38:49;;;;;;;7.25;5.00;;;19.40;99.90;;;;;;5050269;28;20062;-43
2022/06/01 08:41:17;;;;;;;5.95;4.40;;;18.70;99.90;;;;;;5049549;28;20814;-43
2022/06/01 08:43:59;;;;;;;6.55;5.25;;;18.80;99.90;;;;;;5050413;28;20692;-44
2022/06/01 08:46:26;;;;;;;6.30;5.15;;;18.20;99.90;;;;;;5083995;28;20719;-43
2022/06/01 08:49:14;;;;;;;6.75;4.82;;;18.00;99.90;;;;;;5051352;28;20052;-43
2022/06/01 08:51:39;;;;;;;5.40;3.33;;;18.50;99.90;;;;;;5050289;28;20501;-48
2022/06/01 08:54:06;;;;;;;6.45;4.10;;;19.10;99.90;;;;;;5048604;28;20135;-45
2022/06/01 08:56:44;;;;;;;4.45;3.05;;;19.20;99.90;;;;;;5050253;28;20059;-46
2022/06/01 08:59:37;;;;;;;3.88;2.42;;;18.90;99.90;;;;;;5050800;28;20048;-48
2022/06/01 09:02:34;;;;;;;4.95;2.30;;;18.30;99.90;;;;;;5034685;28;20172;-41
2022/06/01 09:05:18;;;;;;;3.95;1.70;;;17.40;99.90;;;;;;5049216;28;20048;-40
2022/06/01 09:08:05;;;;;;;5.22;2.90;;;17.60;99.90;;;;;;5052299;28;20166;-42
2022/06/01 09:10:51;;;;;;;4.97;2.80;;;17.50;99.90;;;;;;5033431;28;20037;-39
2022/06/01 09:13:24;;;;;;;5.00;3.50;;;18.00;99.90;;;;;;5051481;28;20123;-40
2022/06/01 09:16:03;;;;;;;4.43;2.70;;;17.60;99.90;;;;;;5050551;28;20131;-40
2022/06/01 09:18:39;;;;;;;4.57;3.42;;;17.30;99.90;;;;;;5034519;28;20139;-44
2022/06/01 09:23:52;;;;;;;6.32;4.15;;;16.40;99.90;;;;;;5050483;28;20055;-43
2022/06/01 09:26:28;;;;;;;5.80;4.07;;;17.00;99.90;;;;;;5051956;28;20326;-43
2022/06/01 09:28:57;;;;;;;6.10;4.93;;;16.00;99.90;;;;;;5047106;28;20072;-50
2022/06/01 09:31:37;;;;;;;6.50;5.00;;;16.50;99.90;;;;;;5051928;28;21410;-42
2022/06/01 09:34:23;;;;;;;6.32;4.22;;;15.80;99.90;;;;;;5049358;28;20395;-43
2022/06/01 09:37:17;;;;;;;5.45;3.95;;;15.80;99.90;;;;;;5054282;28;20089;-43
2022/06/01 09:39:54;;;;;;;6.72;3.40;;;16.00;99.90;;;;;;5054865;28;20099;-46
2022/06/01 09:42:38;;;;;;;8.77;4.40;;;17.10;99.90;;;;;;5053683;28;20056;-43
2022/06/01 09:45:26;;;;;;;6.68;4.50;;;16.60;99.90;;;;;;5052899;28;20102;-43
2022/06/01 09:47:53;;;;;;;5.13;3.60;;;16.40;99.90;;;;;;5049226;28;20052;-43
2022/06/01 09:50:29;;;;;;;4.97;3.28;;;16.30;99.90;;;;;;5054251;28;20167;-44
2022/06/01 09:53:11;;;;;;;4.38;3.20;;;16.10;99.90;;;;;;5087686;28;20130;-45
2022/06/01 09:55:58;;;;;;;6.13;3.33;;;15.90;99.90;;;;;;5055456;28;20451;-42
2022/06/01 10:06:57;;;;;;;9.00;3.55;;;17.40;99.90;;;;;;5055222;28;20374;-46
2022/06/01 10:09:29;;;;;;;7.00;3.50;;;16.80;99.90;;;;;;5054074;28;20098;-42
2022/06/01 10:11:56;;;;;;;5.35;3.35;;;15.80;99.90;;;;;;5088191;28;20041;-43
2022/06/01 10:14:32;;;;;;;7.18;3.45;;;15.70;99.90;;;;;;5088013;28;20044;-42
2022/06/01 10:17:08;;;;;;;6.25;3.55;;;15.40;99.90;;;;;;5071262;28;20068;-48
2022/06/01 10:19:43;;;;;;;4.97;3.08;;;15.20;99.90;;;;;;5054258;28;20041;-43
2022/06/01 10:22:27;;;;;;;4.82;3.15;;;15.20;99.90;;;;;;5054175;28;20055;-43
2022/06/01 10:24:57;;;;;;;8.82;3.63;;;15.20;99.90;;;;;;5054589;28;20043;-44
2022/06/01 10:27:30;;;;;;;5.18;3.20;;;15.00;99.90;;;;;;5089872;28;20044;-42
2022/06/01 10:30:21;;;;;;;6.07;3.67;;;14.80;99.90;;;;;;5052414;28;20095;-43
2022/06/01 10:33:03;;;;;;;6.22;2.40;;;13.40;99.90;;;;;;5086177;28;20121;-42
2022/06/01 10:35:42;;;;;;;3.08;1.52;;;16.70;99.90;;;;;;5052294;28;20091;-43
2022/06/01 10:38:47;;;;;;;3.00;1.98;;;14.50;99.90;;;;;;5054092;28;20048;-42
2022/06/01 10:41:13;;;;;;;2.60;1.60;;;14.10;99.90;;;;;;4994506;28;20061;-42
2022/06/01 10:43:57;;;;;;;3.72;1.80;;;14.10;99.90;;;;;;4994562;28;20454;-43
2022/06/01 10:46:55;;;;;;;3.20;1.30;;;14.10;99.90;;;;;;5011069;28;20717;-43
2022/06/01 10:49:48;;;;;;;2.97;1.67;;;14.10;99.90;;;;;;5005365;28;20053;-42
2022/06/01 10:52:29;;;;;;;3.65;1.30;;;13.90;99.90;;;;;;4995027;28;20522;-45
2022/06/01 10:55:12;;;;;;;11.40;1.58;;;13.80;99.90;;;;;;5026945;28;20521;-42
2022/06/01 10:57:42;;;;;;;9.30;1.23;;;13.70;99.90;;;;;;5012015;28;20524;-44
2022/06/01 11:00:15;;;;;;;1.55;0.80;;;15.80;99.90;;;;;;5027685;28;20049;-42
2022/06/01 11:02:46;;;;;;;3.85;1.00;;;13.80;99.90;;;;;;4994295;28;20278;-47
2022/06/01 11:05:27;;;;;;;6.75;1.05;;;13.70;99.90;;;;;;4993533;28;20481;-47
2022/06/01 11:08:05;;;;;;;2.97;0.90;;;13.80;99.90;;;;;;4994753;28;20655;-42
2022/06/01 11:10:30;;;;;;;2.95;1.10;;;14.50;99.90;;;;;;4994547;28;20079;-42
2022/06/01 11:13:14;;;;;;;2.90;1.00;;;13.80;99.90;;;;;;4994301;28;20061;-42
2022/06/01 11:15:54;;;;;;;3.95;1.30;;;15.50;99.90;;;;;;5009268;28;20080;-44
2022/06/01 11:18:20;;;;;;;1.95;1.13;;;14.30;99.90;;;;;;5056243;28;20072;-42
2022/06/01 11:21:12;;;;;;;12.80;2.65;;;16.20;99.90;;;;;;5084961;28;20161;-42
2022/06/01 11:24:13;;;;;;;2.42;1.30;;;14.90;99.90;;;;;;5051737;28;20036;-42
2022/06/01 11:27:03;;;;;;;11.63;2.20;;;15.40;99.90;;;;;;5036005;28;20060;-43
2022/06/01 11:29:37;;;;;;;11.43;2.17;;;16.00;99.90;;;;;;5052691;28;20143;-43
2022/06/01 11:32:12;;;;;;;2.88;1.10;;;16.30;99.90;;;;;;5050879;28;20076;-44
2022/06/01 11:35:17;;;;;;;4.68;1.98;;;18.70;99.90;;;;;;5051322;28;20187;-42
2022/06/01 11:37:52;;;;;;;2.70;1.48;;;16.40;99.90;;;;;;5084145;28;20064;-43
2022/06/01 11:40:42;;;;;;;5.85;1.50;;;16.20;99.90;;;;;;5045340;28;20127;-47
2022/06/01 11:43:20;;;;;;;2.25;1.30;;;16.00;99.90;;;;;;5052834;28;20189;-48
2022/06/01 11:45:55;;;;;;;3.13;1.33;;;16.10;99.90;;;;;;5050792;28;20133;-46
2022/06/01 11:48:44;;;;;;;2.50;1.40;;;17.20;99.90;;;;;;5052121;28;20056;-44
2022/06/01 11:51:14;;;;;;;3.50;1.77;;;18.20;99.90;;;;;;5053194;28;20103;-47
2022/06/01 11:54:02;;;;;;;3.20;1.70;;;16.00;99.90;;;;;;5052093;28;20052;-42
2022/06/01 11:56:33;;;;;;;5.15;1.95;;;15.60;99.90;;;;;;5034618;28;20056;-47
2022/06/01 11:59:25;;;;;;;4.97;1.90;;;15.50;99.90;;;;;;5052506;28;20064;-44
2022/06/01 12:02:03;;;;;;;2.75;1.15;;;15.30;99.90;;;;;;5033981;28;20068;-46
2022/06/01 12:04:50;;;;;;;2.05;1.27;;;14.80;99.90;;;;;;5034062;28;20855;-42
2022/06/01 12:07:33;;;;;;;3.03;1.10;;;16.00;99.90;;;;;;5049486;28;20202;-46
2022/06/01 12:10:20;;;;;;;2.33;1.30;;;14.20;99.90;;;;;;5033278;28;21231;-43
2022/06/01 12:12:54;;;;;;;3.58;1.17;;;13.90;99.90;;;;;;5049491;28;20566;-45
2022/06/01 12:15:29;;;;;;;1.70;1.10;;;13.90;99.90;;;;;;5031129;28;20076;-43
2022/06/01 12:18:18;;;;;;;5.32;1.30;;;14.70;99.90;;;;;;5030937;28;20105;-43
2022/06/01 12:21:14;;;;;;;3.17;1.30;;;15.00;99.90;;;;;;5030966;28;20040;-44
2022/06/01 12:30:05;;;;;;;5.10;1.45;;;12.20;99.90;;;;;;5066851;28;20060;-43
2022/06/01 12:32:52;;;;;;;5.13;1.63;;;12.10;99.90;;;;;;5032073;28;20052;-44
2022/06/01 12:35:20;;;;;;;3.25;1.50;;;11.90;99.90;;;;;;5066433;28;20521;-46
2022/06/01 12:37:57;;;;;;;4.70;1.48;;;11.80;99.90;;;;;;5066651;28;20056;-47
2022/06/01 12:40:24;;;;;;;2.20;1.17;;;11.90;99.90;;;;;;5067644;28;20102;-44
2022/06/01 12:43:00;;;;;;;3.25;1.73;;;13.80;99.90;;;;;;5050638;28;20037;-48
2022/06/01 12:45:38;;;;;;;4.65;1.58;;;11.60;99.90;;;;;;5033247;28;20060;-48
2022/06/01 12:48:15;;;;;;;2.40;1.20;;;12.00;99.90;;;;;;5034485;28;20045;-46
2022/06/01 12:51:00;;;;;;;2.97;1.20;;;12.40;99.90;;;;;;5084451;28;20056;-48
2022/06/01 12:53:48;;;;;;;3.67;1.60;;;11.70;99.90;;;;;;5052852;28;20075;-48
2022/06/01 12:56:21;;;;;;;3.05;1.63;;;11.50;99.90;;;;;;5051781;28;20415;-47
2022/06/01 12:58:47;;;;;;;;;;;11.40;99.90;;;;;;5051856;28;20048;-47
2022/06/01 13:01:17;;;;;;;3.80;2.25;;;11.70;99.90;;;;;;5050893;28;19962;-48
2022/06/01 13:04:00;;;;;;;5.22;1.70;;;12.10;99.90;;;;;;5049481;28;20040;-45
2022/06/01 13:06:27;;;;;;;4.13;1.83;;;11.70;99.90;;;;;;5084874;28;20813;-46
2022/06/01 13:09:08;;;;;;;2.88;1.90;;;11.60;99.90;;;;;;5051215;28;20040;-48
2022/06/01 13:11:36;;;;;;;3.97;1.77;;;13.80;99.90;;;;;;5050621;28;20036;-48
2022/06/01 13:14:04;;;;;;;4.15;2.03;;;11.90;99.90;;;;;;5050140;28;20083;-47
2022/06/01 13:16:33;;;;;;;3.83;2.13;;;12.20;99.90;;;;;;5050300;28;20038;-46
2022/06/01 13:19:13;;;;;;;3.83;2.70;;;14.10;99.90;;;;;;5033951;28;21233;-47
2022/06/01 13:21:39;;;;;;;5.03;2.45;;;13.20;99.90;;;;;;5066271;28;20051;-46
2022/06/01 13:24:08;;;;;;;5.15;2.00;;;13.30;99.90;;;;;;5031675;28;20764;-44
2022/06/01 13:26:40;;;;;;;3.28;1.90;;;13.90;99.90;;;;;;5031125;28;20047;-44
2022/06/01 13:29:41;;;;;;;4.18;1.83;;;14.00;99.90;;;;;;5052105;28;20098;-43
2022/06/01 13:32:10;;;;;;;3.83;2.33;;;14.30;99.90;;;;;;5047344;28;20052;-44
2022/06/01 13:34:38;;;;;;;7.38;2.17;;;15.80;99.90;;;;;;5030424;28;20151;-44
2022/06/01 13:37:30;;;;;;;5.57;2.50;;;14.80;99.90;;;;;;5014686;28;20057;-45